KEZS

Shawano Municipal Airport

Shawano, Wisconsin, USA
METAR KEZS 220955Z AUTO 00000KT 7SM BKN005 OVC013 11/10 A3001 RMK AO2 T01100097
Observed Flight Rules
May-22 @ 09:55 UTC (20 minutes ago) Instrument Flight Rules
Visibility Clouds
7 miles
  • Broken at 500' AGL
  • Overcast at 1,300' AGL
Temperatures Readings
Current 11°C / 52°F
Dewpoint 10°C / 50°F
Humidity 94%
Altimeter 30.01" Hg
Pressure 1016 hPa
Elevation 248
METAR KEZS 220955Z AUTO 00000KT 7SM BKN005 OVC013 11/10 A3001 RMK AO2 T01100097
Observed Flight Rules
May-22 @ 09:55 UTC
(20 minutes ago)
IFR
Clouds
  • Broken at 500' AGL
  • Overcast at 1,300' AGL
Temperature Dewpoint
11°C / 52°F 10°C / 50°F
Humidity Altimeter Pressure
94% 30.01" Hg 1016 hPa